createdAt,value
2022-08-04T00:01:45.843Z,23.09
2022-08-04T00:04:24.738Z,23.07
2022-08-04T00:06:58.507Z,22.96
2022-08-04T00:09:34.540Z,23.06
2022-08-04T00:12:02.356Z,23.04
2022-08-04T00:14:34.974Z,23.04
2022-08-04T00:17:06.366Z,22.92
2022-08-04T00:19:40.273Z,22.67
2022-08-04T00:22:10.363Z,22.51
2022-08-04T00:24:37.703Z,22.45
2022-08-04T00:27:04.683Z,22.31
2022-08-04T00:29:31.708Z,22.55
2022-08-04T00:31:59.311Z,22.56
2022-08-04T00:34:27.978Z,22.57
2022-08-04T00:36:56.543Z,22.60
2022-08-04T00:39:23.996Z,22.61
2022-08-04T00:42:03.398Z,22.60
2022-08-04T00:44:58.175Z,22.60
2022-08-04T00:48:26.347Z,22.61
2022-08-04T00:51:21.872Z,22.42
2022-08-04T00:54:23.383Z,22.37
2022-08-04T00:57:29.990Z,22.38
2022-08-04T01:00:09.689Z,22.39
2022-08-04T01:02:51.017Z,22.34
2022-08-04T01:05:22.491Z,22.33
2022-08-04T01:08:01.730Z,22.26
2022-08-04T01:10:54.550Z,22.27
2022-08-04T01:13:27.274Z,22.30
2022-08-04T01:16:05.240Z,22.20
2022-08-04T01:19:05.820Z,22.36
2022-08-04T01:21:54.248Z,22.35
2022-08-04T01:24:43.823Z,22.28
2022-08-04T01:27:49.207Z,22.30
2022-08-04T01:30:16.857Z,22.27
2022-08-04T01:32:53.689Z,22.27
2022-08-04T01:35:49.708Z,22.19
2022-08-04T01:38:38.785Z,22.10
2022-08-04T01:41:08.109Z,21.95
2022-08-04T01:43:40.473Z,21.96
2022-08-04T01:46:11.644Z,21.87
2022-08-04T01:48:45.593Z,21.95
2022-08-04T01:51:12.582Z,21.91
2022-08-04T01:53:42.018Z,21.92
2022-08-04T01:56:10.785Z,21.88
2022-08-04T01:58:39.310Z,21.77
2022-08-04T02:01:09.114Z,21.59
2022-08-04T02:04:19.704Z,21.71
2022-08-04T02:06:32.110Z,21.70
2022-08-04T02:09:28.073Z,21.48
2022-08-04T02:11:57.492Z,21.62
2022-08-04T02:14:43.183Z,21.51
2022-08-04T02:17:34.578Z,21.36
2022-08-04T02:20:24.679Z,21.38
2022-08-04T02:23:00.611Z,21.38
2022-08-04T02:25:29.601Z,21.41
2022-08-04T02:28:15.839Z,21.42
2022-08-04T02:30:52.448Z,21.31
2022-08-04T02:33:26.648Z,21.30
2022-08-04T02:36:02.413Z,20.85
2022-08-04T02:38:50.178Z,21.08
2022-08-04T02:41:20.607Z,20.66
2022-08-04T02:43:50.915Z,20.94
2022-08-04T02:46:20.948Z,20.86
2022-08-04T02:48:49.157Z,20.82
2022-08-04T02:51:19.974Z,20.71
2022-08-04T02:53:49.535Z,20.77
2022-08-04T02:56:20.199Z,20.99
2022-08-04T02:58:51.718Z,21.04
2022-08-04T03:01:18.450Z,20.83
2022-08-04T03:03:59.478Z,20.94
2022-08-04T03:07:15.726Z,21.21
2022-08-04T03:10:21.227Z,21.30
2022-08-04T03:13:24.306Z,21.33
2022-08-04T03:16:12.122Z,21.41
2022-08-04T03:19:13.483Z,21.32
2022-08-04T03:21:56.828Z,21.19
2022-08-04T03:24:50.677Z,21.23
2022-08-04T03:27:42.110Z,21.18
2022-08-04T03:30:18.879Z,21.20
2022-08-04T03:33:10.493Z,21.19
2022-08-04T03:36:06.864Z,21.12
2022-08-04T03:38:45.890Z,21.15
2022-08-04T03:41:51.476Z,21.25
2022-08-04T03:45:20.509Z,21.37
2022-08-04T03:48:07.382Z,21.36
2022-08-04T03:51:34.119Z,21.38
2022-08-04T03:54:14.555Z,21.41
2022-08-04T03:57:02.657Z,21.39
2022-08-04T03:59:56.811Z,21.33
2022-08-04T04:02:29.288Z,21.32
2022-08-04T04:04:56.548Z,21.31
2022-08-04T04:07:35.807Z,21.31
2022-08-04T04:10:26.907Z,21.28
2022-08-04T04:13:10.714Z,21.24
2022-08-04T04:16:00.148Z,21.22
2022-08-04T04:18:29.540Z,21.14
2022-08-04T04:21:11.983Z,20.98
2022-08-04T04:23:50.714Z,21.06
2022-08-04T04:26:32.457Z,21.08
2022-08-04T04:29:29.562Z,21.07
2022-08-04T04:32:17.920Z,21.00
2022-08-04T04:35:03.243Z,21.00
2022-08-04T04:37:32.592Z,21.05
2022-08-04T04:40:23.552Z,21.02
2022-08-04T04:43:51.334Z,21.12
2022-08-04T04:46:40.844Z,21.29
2022-08-04T04:49:33.179Z,21.43
2022-08-04T04:52:18.221Z,21.58
2022-08-04T04:54:47.920Z,21.64
2022-08-04T04:57:52.957Z,21.67
2022-08-04T05:00:13.700Z,21.80
2022-08-04T05:03:00.135Z,21.73
2022-08-04T05:05:49.332Z,21.68
2022-08-04T05:08:54.770Z,21.74
2022-08-04T05:11:30.597Z,21.79
2022-08-04T05:14:36.107Z,21.74
2022-08-04T05:16:54.344Z,21.88
2022-08-04T05:19:34.880Z,21.97
2022-08-04T05:22:14.195Z,22.02
2022-08-04T05:24:45.168Z,22.07
2022-08-04T05:27:22.773Z,22.21
2022-08-04T05:29:54.566Z,22.33
2022-08-04T05:32:26.839Z,22.65
2022-08-04T05:35:00.190Z,22.75
2022-08-04T05:37:30.416Z,22.95
2022-08-04T05:40:04.787Z,23.04
2022-08-04T05:42:34.835Z,23.17
2022-08-04T05:45:03.112Z,23.09
2022-08-04T05:47:31.333Z,23.27
2022-08-04T05:50:01.989Z,23.21
2022-08-04T05:52:31.465Z,23.22
2022-08-04T05:55:00.440Z,23.33
2022-08-04T05:57:28.390Z,23.26
2022-08-04T05:59:57.667Z,23.40
2022-08-04T06:02:25.382Z,23.48
2022-08-04T06:04:53.132Z,23.58
2022-08-04T06:07:20.254Z,23.68
2022-08-04T06:09:47.436Z,23.81
2022-08-04T06:12:49.548Z,23.95
2022-08-04T06:15:20.121Z,24.06
2022-08-04T06:19:10.077Z,24.19
2022-08-04T06:20:50.202Z,24.32
2022-08-04T06:23:20.816Z,24.45
2022-08-04T06:25:55.042Z,24.59
2022-08-04T06:28:23.055Z,24.77
2022-08-04T06:30:51.111Z,24.78
2022-08-04T06:33:26.837Z,25.19
2022-08-04T06:35:55.527Z,25.37
2022-08-04T06:38:25.093Z,25.51
2022-08-04T06:40:53.276Z,25.78
2022-08-04T06:43:22.044Z,25.93
2022-08-04T06:45:49.518Z,26.07
2022-08-04T06:48:18.105Z,26.08
2022-08-04T06:51:29.622Z,26.32
2022-08-04T06:53:35.416Z,26.58
2022-08-04T06:56:02.997Z,26.86
2022-08-04T06:58:33.244Z,27.07
2022-08-04T07:01:02.102Z,27.25
2022-08-04T07:03:30.921Z,27.30
2022-08-04T07:05:58.183Z,27.65
2022-08-04T07:08:24.919Z,27.87
2022-08-04T07:10:53.291Z,28.11
2022-08-04T07:13:23.421Z,28.39
2022-08-04T07:15:54.999Z,28.38
2022-08-04T07:18:21.807Z,28.69
2022-08-04T07:20:49.248Z,28.83
2022-08-04T07:23:24.788Z,28.95
2022-08-04T07:26:00.914Z,29.04
2022-08-04T07:28:39.597Z,29.26
2022-08-04T07:31:09.559Z,29.52
2022-08-04T07:33:36.828Z,29.58
2022-08-04T07:36:11.790Z,29.82
2022-08-04T07:38:46.420Z,29.91
2022-08-04T07:41:38.024Z,30.03
2022-08-04T07:44:05.528Z,30.19
2022-08-04T07:46:32.524Z,30.44
2022-08-04T07:49:03.151Z,30.53
2022-08-04T07:51:31.289Z,30.40
2022-08-04T07:53:59.025Z,31.04
2022-08-04T07:56:27.789Z,31.28
2022-08-04T07:58:55.301Z,31.45
2022-08-04T08:01:23.499Z,31.57
2022-08-04T08:03:52.735Z,31.60
2022-08-04T08:06:33.139Z,31.59
2022-08-04T08:09:12.904Z,31.74
2022-08-04T08:12:37.592Z,31.74
2022-08-04T08:14:36.286Z,31.77
2022-08-04T08:17:04.367Z,31.97
2022-08-04T08:19:32.819Z,32.33
2022-08-04T08:22:01.101Z,32.80
2022-08-04T08:24:34.837Z,32.87
2022-08-04T08:27:04.289Z,32.93
2022-08-04T08:29:33.602Z,33.29
2022-08-04T08:32:07.404Z,33.42
2022-08-04T08:34:35.882Z,33.56
2022-08-04T08:37:16.150Z,33.75
2022-08-04T08:39:54.267Z,34.11
2022-08-04T08:42:55.586Z,34.50
2022-08-04T08:45:47.631Z,34.83
2022-08-04T08:48:29.431Z,34.99
2022-08-04T08:51:05.971Z,34.66
2022-08-04T08:53:42.331Z,34.65
2022-08-04T08:56:36.629Z,35.02
2022-08-04T08:59:45.324Z,35.22
2022-08-04T09:02:26.935Z,35.21
2022-08-04T09:05:28.811Z,35.56
2022-08-04T09:08:28.079Z,35.98
2022-08-04T09:11:06.612Z,35.76
2022-08-04T09:13:50.158Z,36.10
2022-08-04T09:16:36.049Z,36.35
2022-08-04T09:19:10.430Z,36.74
2022-08-04T09:22:03.626Z,37.06
2022-08-04T09:24:50.862Z,36.67
2022-08-04T09:27:24.176Z,36.60
2022-08-04T09:30:03.071Z,37.01
2022-08-04T09:32:38.563Z,37.16
2022-08-04T09:36:03.142Z,37.23
2022-08-04T09:38:30.777Z,37.54
2022-08-04T09:41:27.575Z,37.41
2022-08-04T09:44:50.974Z,37.03
2022-08-04T09:47:13.774Z,37.67
2022-08-04T09:49:50.256Z,38.14
2022-08-04T09:52:39.513Z,38.26
2022-08-04T09:55:24.356Z,37.79
2022-08-04T09:58:09.379Z,37.64
2022-08-04T10:00:50.178Z,38.17
2022-08-04T10:03:20.399Z,38.43
2022-08-04T10:06:06.046Z,38.86
2022-08-04T10:09:08.918Z,38.33
2022-08-04T10:12:03.379Z,37.78
2022-08-04T10:14:45.344Z,37.96
2022-08-04T10:17:37.736Z,38.43
2022-08-04T10:20:33.913Z,38.39
2022-08-04T10:23:55.912Z,37.91
2022-08-04T10:26:48.278Z,37.79
2022-08-04T10:29:22.689Z,38.14
2022-08-04T10:32:14.437Z,38.54
2022-08-04T10:34:44.388Z,38.55
2022-08-04T10:37:17.266Z,38.40
2022-08-04T10:40:11.350Z,38.65
2022-08-04T10:42:47.128Z,38.98
2022-08-04T10:45:19.629Z,38.91
2022-08-04T10:48:01.451Z,38.46
2022-08-04T10:50:29.774Z,38.28
2022-08-04T10:53:22.984Z,38.72
2022-08-04T10:56:07.612Z,39.12
2022-08-04T10:58:47.456Z,39.22
2022-08-04T11:02:00.963Z,39.66
2022-08-04T11:04:52.139Z,39.37
2022-08-04T11:07:19.929Z,38.96
2022-08-04T11:09:49.225Z,38.95
2022-08-04T11:12:26.341Z,38.93
2022-08-04T11:15:04.803Z,38.74
2022-08-04T11:17:35.962Z,39.20
2022-08-04T11:20:34.483Z,39.92
2022-08-04T11:23:11.181Z,39.77
2022-08-04T11:25:59.037Z,39.11
2022-08-04T11:28:58.394Z,38.96
2022-08-04T11:31:37.017Z,39.48
2022-08-04T11:34:18.887Z,40.09
2022-08-04T11:37:23.717Z,39.77
2022-08-04T11:39:58.991Z,39.73
2022-08-04T11:42:33.417Z,40.03
2022-08-04T11:45:00.094Z,40.59
2022-08-04T11:47:32.781Z,40.46
2022-08-04T11:50:25.499Z,40.07
2022-08-04T11:52:54.842Z,39.77
2022-08-04T11:55:23.020Z,39.43
2022-08-04T11:57:54.144Z,39.65
2022-08-04T12:00:25.208Z,40.10
2022-08-04T12:03:17.884Z,39.93
2022-08-04T12:06:20.042Z,39.60
2022-08-04T12:09:05.157Z,39.67
2022-08-04T12:11:54.885Z,39.28
2022-08-04T12:14:41.093Z,38.99
2022-08-04T12:17:10.155Z,39.14
2022-08-04T12:20:03.923Z,39.39
2022-08-04T12:22:41.470Z,39.69
2022-08-04T12:25:13.719Z,39.61
2022-08-04T12:27:49.240Z,40.19
2022-08-04T12:30:57.760Z,40.76
2022-08-04T12:33:10.781Z,40.50
2022-08-04T12:36:10.631Z,40.35
2022-08-04T12:38:49.729Z,40.30
2022-08-04T12:41:23.592Z,39.76
2022-08-04T12:43:50.993Z,39.45
2022-08-04T12:46:26.733Z,39.34
2022-08-04T12:49:01.829Z,39.64
2022-08-04T12:52:05.894Z,39.80
2022-08-04T12:54:28.879Z,40.40
2022-08-04T12:57:01.227Z,40.82
2022-08-04T12:59:28.404Z,41.05
2022-08-04T13:02:09.581Z,40.83
2022-08-04T13:04:51.383Z,40.22
2022-08-04T13:07:24.594Z,40.11
2022-08-04T13:09:52.492Z,39.63
2022-08-04T13:12:31.864Z,39.75
2022-08-04T13:15:10.838Z,39.82
2022-08-04T13:17:47.705Z,39.86
2022-08-04T13:20:16.472Z,40.13
2022-08-04T13:22:46.632Z,40.12
2022-08-04T13:26:40.554Z,40.17
2022-08-04T13:28:02.158Z,40.47
2022-08-04T13:30:33.094Z,40.20
2022-08-04T13:33:05.204Z,39.76
2022-08-04T13:35:56.096Z,39.84
2022-08-04T13:38:25.555Z,39.72
2022-08-04T13:40:53.962Z,39.49
2022-08-04T13:44:16.921Z,39.59
2022-08-04T13:46:27.242Z,39.95
2022-08-04T13:49:23.663Z,39.41
2022-08-04T13:51:59.048Z,39.39
2022-08-04T13:54:42.939Z,39.65
2022-08-04T13:57:17.324Z,39.81
2022-08-04T13:59:51.612Z,39.59
2022-08-04T14:02:39.165Z,39.56
2022-08-04T14:05:31.327Z,39.24
2022-08-04T14:08:23.359Z,39.39
2022-08-04T14:10:55.247Z,39.50
2022-08-04T14:13:41.474Z,39.53
2022-08-04T14:16:20.930Z,39.53
2022-08-04T14:18:57.008Z,39.42
2022-08-04T14:21:24.776Z,39.04
2022-08-04T14:23:56.619Z,38.75
2022-08-04T14:26:33.852Z,38.89
2022-08-04T14:29:26.500Z,39.06
2022-08-04T14:32:04.441Z,38.97
2022-08-04T14:34:41.532Z,39.20
2022-08-04T14:37:18.578Z,39.34
2022-08-04T14:40:17.680Z,38.99
2022-08-04T14:42:55.238Z,38.87
2022-08-04T14:45:37.702Z,38.79
2022-08-04T14:48:09.451Z,38.92
2022-08-04T14:50:45.583Z,39.19
2022-08-04T14:53:14.497Z,39.25
2022-08-04T14:55:46.551Z,39.16
2022-08-04T14:58:37.588Z,39.37
2022-08-04T15:01:12.175Z,39.57
2022-08-04T15:04:00.612Z,39.58
2022-08-04T15:06:29.895Z,39.66
2022-08-04T15:08:59.234Z,39.49
2022-08-04T15:11:26.300Z,39.15
2022-08-04T15:13:54.445Z,39.09
2022-08-04T15:16:22.788Z,39.09
2022-08-04T15:18:50.972Z,38.90
2022-08-04T15:21:21.440Z,38.60
2022-08-04T15:23:50.273Z,38.39
2022-08-04T15:26:23.815Z,38.31
2022-08-04T15:28:56.152Z,38.04
2022-08-04T15:32:05.773Z,38.09
2022-08-04T15:34:12.549Z,38.26
2022-08-04T15:36:56.791Z,38.28
2022-08-04T15:39:55.677Z,38.16
2022-08-04T15:42:34.531Z,37.98
2022-08-04T15:45:12.123Z,38.00
2022-08-04T15:47:40.093Z,37.94
2022-08-04T15:50:10.533Z,38.10
2022-08-04T15:53:00.625Z,38.29
2022-08-04T15:55:40.131Z,38.31
2022-08-04T15:58:08.658Z,38.40
2022-08-04T16:00:47.786Z,38.33
2022-08-04T16:03:58.276Z,38.26
2022-08-04T16:06:22.908Z,38.04
2022-08-04T16:08:57.266Z,37.84
2022-08-04T16:11:31.234Z,37.88
2022-08-04T16:13:58.811Z,39.61
2022-08-04T16:16:38.374Z,42.86
2022-08-04T16:19:08.244Z,44.64
2022-08-04T16:21:46.491Z,44.95
2022-08-04T16:24:21.903Z,45.43
2022-08-04T16:26:57.428Z,45.91
2022-08-04T16:29:42.957Z,46.59
2022-08-04T16:32:10.971Z,46.93
2022-08-04T16:34:56.732Z,46.51
2022-08-04T16:37:38.718Z,46.49
2022-08-04T16:40:35.352Z,46.70
2022-08-04T16:43:13.545Z,46.92
2022-08-04T16:45:46.702Z,47.29
2022-08-04T16:48:15.611Z,46.70
2022-08-04T16:51:14.473Z,46.45
2022-08-04T16:54:02.845Z,45.45
2022-08-04T16:56:34.443Z,45.15
2022-08-04T16:59:12.472Z,45.05
2022-08-04T17:01:51.555Z,44.79
2022-08-04T17:04:27.816Z,44.91
2022-08-04T17:07:00.128Z,45.58
2022-08-04T17:09:28.773Z,45.80
2022-08-04T17:11:56.872Z,45.74
2022-08-04T17:14:25.844Z,45.92
2022-08-04T17:16:54.109Z,46.03
2022-08-04T17:19:26.179Z,46.44
2022-08-04T17:22:07.300Z,46.72
2022-08-04T17:24:40.437Z,46.93
2022-08-04T17:28:19.241Z,46.87
2022-08-04T17:29:54.970Z,46.26
2022-08-04T17:32:23.248Z,45.96
2022-08-04T17:34:53.078Z,45.41
2022-08-04T17:37:40.982Z,44.91
2022-08-04T17:40:14.463Z,44.36
2022-08-04T17:42:45.777Z,44.00
2022-08-04T17:48:08.955Z,42.73
2022-08-04T17:50:36.558Z,41.00
2022-08-04T17:53:11.911Z,39.29
2022-08-04T17:55:43.228Z,37.90
2022-08-04T17:58:22.346Z,37.43
2022-08-04T18:01:10.597Z,37.05
2022-08-04T18:03:52.809Z,36.68
2022-08-04T18:06:22.916Z,36.25
2022-08-04T18:08:59.317Z,36.13
2022-08-04T18:11:55.425Z,35.78
2022-08-04T18:14:25.954Z,35.44
2022-08-04T18:16:55.910Z,35.21
2022-08-04T18:19:22.741Z,34.82
2022-08-04T18:21:59.801Z,34.45
2022-08-04T18:24:34.637Z,34.15
2022-08-04T18:27:23.650Z,33.93
2022-08-04T18:30:33.685Z,33.63
2022-08-04T18:33:04.451Z,33.54
2022-08-04T18:35:25.470Z,33.42
2022-08-04T18:38:23.984Z,33.12
2022-08-04T18:40:53.146Z,32.86
2022-08-04T18:43:28.566Z,32.44
2022-08-04T18:46:12.485Z,32.59
2022-08-04T18:48:41.689Z,32.42
2022-08-04T18:51:22.507Z,32.23
2022-08-04T18:53:58.187Z,31.94
2022-08-04T18:56:31.673Z,31.84
2022-08-04T18:59:01.488Z,31.64
2022-08-04T19:02:13.575Z,31.30
2022-08-04T19:04:34.062Z,31.22
2022-08-04T19:07:24.671Z,31.11
2022-08-04T19:09:57.297Z,30.97
2022-08-04T19:12:26.714Z,30.70
2022-08-04T19:14:58.055Z,30.75
2022-08-04T19:17:56.592Z,30.65
2022-08-04T19:20:24.274Z,30.35
2022-08-04T19:24:28.583Z,30.39
2022-08-04T19:25:59.374Z,30.02
2022-08-04T19:28:29.970Z,30.02
2022-08-04T19:30:58.808Z,29.50
2022-08-04T19:33:25.669Z,29.26
2022-08-04T19:36:12.385Z,29.64
2022-08-04T19:38:39.370Z,29.52
2022-08-04T19:41:14.375Z,29.39
2022-08-04T19:43:43.591Z,28.87
2022-08-04T19:49:00.153Z,28.90
2022-08-04T19:51:30.624Z,28.87
2022-08-04T19:54:04.074Z,28.71
2022-08-04T19:59:25.236Z,28.59
2022-08-04T20:01:59.042Z,28.37
2022-08-04T20:04:27.735Z,28.44
2022-08-04T20:06:58.069Z,28.33
2022-08-04T20:09:27.090Z,28.17
2022-08-04T20:11:55.804Z,28.00
2022-08-04T20:14:32.687Z,27.93
2022-08-04T20:17:10.133Z,27.85
2022-08-04T20:19:37.896Z,27.82
2022-08-04T20:22:04.901Z,27.89
2022-08-04T20:24:44.188Z,27.67
2022-08-04T20:27:17.736Z,27.68
2022-08-04T20:29:49.402Z,27.19
2022-08-04T20:35:08.788Z,27.18
2022-08-04T20:37:55.434Z,27.08
2022-08-04T20:40:27.565Z,26.93
2022-08-04T20:42:54.345Z,26.64
2022-08-04T20:45:24.152Z,26.55
2022-08-04T20:48:10.929Z,26.57
2022-08-04T20:50:37.741Z,26.69
2022-08-04T20:53:05.978Z,26.51
2022-08-04T20:55:54.690Z,26.55
2022-08-04T20:58:22.419Z,26.65
2022-08-04T21:00:55.012Z,26.46
2022-08-04T21:03:49.584Z,26.52
2022-08-04T21:06:09.115Z,26.40
2022-08-04T21:08:37.083Z,26.39
2022-08-04T21:13:52.771Z,25.92
2022-08-04T21:16:55.763Z,25.89
2022-08-04T21:19:12.912Z,25.81
2022-08-04T21:21:40.703Z,25.67
2022-08-04T21:24:07.883Z,25.90
2022-08-04T21:26:35.527Z,25.73
2022-08-04T21:29:04.664Z,25.18
2022-08-04T21:31:36.764Z,25.60
2022-08-04T21:34:37.862Z,24.07
2022-08-04T21:37:15.329Z,25.34
2022-08-04T21:39:50.140Z,25.57
2022-08-04T21:42:27.781Z,25.28
2022-08-04T21:44:59.724Z,25.46
2022-08-04T21:47:45.925Z,25.15
2022-08-04T21:50:13.060Z,25.21
2022-08-04T21:52:46.356Z,25.26
2022-08-04T21:55:13.028Z,25.31
2022-08-04T22:00:26.587Z,25.31
2022-08-04T22:02:53.854Z,25.07
2022-08-04T22:05:21.534Z,25.21
2022-08-04T22:07:50.873Z,25.15
2022-08-04T22:10:32.164Z,24.88
2022-08-04T22:13:06.867Z,24.74
2022-08-04T22:18:24.578Z,24.75
2022-08-04T22:20:54.536Z,25.10
2022-08-04T22:23:24.347Z,25.32
2022-08-04T22:25:55.825Z,25.11
2022-08-04T22:28:24.517Z,25.44
2022-08-04T22:30:55.670Z,25.44
2022-08-04T22:33:22.888Z,25.42
2022-08-04T22:35:50.068Z,25.36
2022-08-04T22:38:24.005Z,25.22
2022-08-04T22:41:12.246Z,25.06
2022-08-04T22:43:40.489Z,24.87
2022-08-04T22:46:12.207Z,24.99
2022-08-04T22:48:39.830Z,24.62
2022-08-04T22:51:10.299Z,24.81
2022-08-04T22:53:39.916Z,24.80
2022-08-04T22:56:10.637Z,24.66
2022-08-04T22:58:45.265Z,24.70
2022-08-04T23:01:15.009Z,24.04
2022-08-04T23:03:51.247Z,24.20
2022-08-04T23:06:25.260Z,24.07
2022-08-04T23:08:53.201Z,24.25
2022-08-04T23:11:20.596Z,24.04
2022-08-04T23:13:48.938Z,24.19
2022-08-04T23:16:17.141Z,24.08
2022-08-04T23:18:48.907Z,23.95
2022-08-04T23:21:17.152Z,23.92
2022-08-04T23:23:55.725Z,24.02
2022-08-04T23:26:30.759Z,24.07
2022-08-04T23:28:57.558Z,23.96
2022-08-04T23:31:25.314Z,24.08
2022-08-04T23:34:08.579Z,24.04
2022-08-04T23:36:35.393Z,24.07
2022-08-04T23:39:05.846Z,24.10
2022-08-04T23:41:54.419Z,23.85
2022-08-04T23:44:24.702Z,23.98
2022-08-04T23:47:00.410Z,23.88
2022-08-04T23:49:43.491Z,24.04
2022-08-04T23:52:23.090Z,24.03
2022-08-04T23:54:56.918Z,23.55
2022-08-04T23:57:25.713Z,23.37
